TAF KCEC
AMD KCEC 270835Z 2709/2806 13004KT 4SM BR SCT008 OVC015 TEMPO 2709/2711 17010KT 2SM -RA BKN020 FM271400 13005KT 6SM BR SCT025 OVC050 FM272100 16004KT 5SM BR SCT070 BKN150 FM280100 15003KT 3SM BR SCT012 SCT200=
METAR KCEC
WC KCEC
WS KCEC
WV KCEC